This is the latest recevied weather packets stored in our database for station/object WA4OPQ-1. If no packets are shown the sender has not sent any weather packets the latest 10 day(s).
| Time | Temp. | Humidity | Pressure | Rain* | Wind** | Luminosity | Snow |
|---|---|---|---|---|---|---|---|
| 1787603154 | 30° C | 53% | 1013.2 hPa | 0 mm | 0 m/s | 469 W/m² | - |
| 1787602639 | 30.56° C | 54% | 1012.9 hPa | 0 mm | 0 m/s | 558 W/m² | - |
| 1787602079 | 30° C | 55% | 1013.2 hPa | 0 mm | 0.45 m/s, 322° | 574 W/m² | - |
| 1787601574 | 30° C | 57% | 1013.4 hPa | 0 mm | 0 m/s | 595 W/m² | - |
| 1787601094 | 30° C | 58% | 1013.4 hPa | 0 mm | 0 m/s | 604 W/m² | - |
| 1787600494 | 29.44° C | 56% | 1013.6 hPa | 0 mm | 0 m/s | 622 W/m² | - |
| 1787599921 | 30° C | 57% | 1013.6 hPa | 0 mm | 0 m/s | 630 W/m² | - |
| 1787599401 | 30° C | 59% | 1013.7 hPa | 0 mm | 0.45 m/s, 319° | 644 W/m² | - |
| 1787598879 | 30° C | 55% | 1014 hPa | 0 mm | 0.45 m/s, 314° | 659 W/m² | - |
| 1787598344 | 30° C | 57% | 1013.8 hPa | 0 mm | 0.45 m/s, 326° | 672 W/m² | - |
| 1787597789 | 29.44° C | 60% | 1013.9 hPa | 0 mm | 0 m/s | 657 W/m² | - |
| 1787597281 | 28.89° C | 53% | 1014.2 hPa | 0 mm | 0.89 m/s, 342° | 637 W/m² | - |
| 1787596734 | 29.44° C | 52% | 1014.4 hPa | 0 mm | 0 m/s | 669 W/m² | - |
| 1787596254 | 28.89° C | 55% | 1014.6 hPa | 0 mm | 0 m/s | 682 W/m² | - |
| 1787595681 | 30° C | 62% | 1014.5 hPa | 0 mm | 0 m/s | 691 W/m² | - |
| 1787595139 | 29.44° C | 54% | 1014.8 hPa | 0 mm | 0.89 m/s, 313° | 674 W/m² | - |
| 1787594569 | 28.89° C | 57% | 1014.6 hPa | 0 mm | 0.45 m/s, 318° | 673 W/m² | - |
| 1787594089 | 28.89° C | 62% | 1014.8 hPa | 0 mm | 0 m/s | 700 W/m² | - |
| 1787593569 | 28.33° C | 62% | 1014.8 hPa | 0 mm | 0 m/s | 677 W/m² | - |
| 1787593069 | 28.89° C | 65% | 1014.8 hPa | 0 mm | 0 m/s | 672 W/m² | - |
| 1787592524 | 28.89° C | 61% | 1015 hPa | 0 mm | 0 m/s | 679 W/m² | - |
| 1787591954 | 29.44° C | 57% | 1014.7 hPa | 0 mm | 0 m/s | 671 W/m² | - |
| 1787591364 | 28.89° C | 64% | 1014.9 hPa | 0 mm | 0 m/s | 676 W/m² | - |
| 1787590824 | 28.89° C | 65% | 1015 hPa | 0 mm | 0 m/s | 565 W/m² | - |
| 1787590234 | 28.33° C | 60% | 1014.8 hPa | 0 mm | 0 m/s | 648 W/m² | - |
* Rain latest hour (hover to see other rain measurements)
** Current wind speed in m/s (hover to see current wind gust speed)